createdAt,value
2023-02-27T00:02:01.353Z,16.85
2023-02-27T00:04:28.180Z,16.59
2023-02-27T00:06:55.076Z,17.03
2023-02-27T00:09:21.783Z,16.93
2023-02-27T00:11:48.465Z,16.86
2023-02-27T00:14:15.241Z,17.02
2023-02-27T00:16:42.058Z,17.04
2023-02-27T00:19:08.718Z,17.18
2023-02-27T00:21:36.947Z,17.01
2023-02-27T00:24:04.672Z,16.67
2023-02-27T00:26:31.657Z,16.88
2023-02-27T00:28:58.364Z,16.87
2023-02-27T00:31:25.555Z,16.90
2023-02-27T00:33:52.418Z,16.92
2023-02-27T00:36:19.283Z,16.71
2023-02-27T00:38:45.986Z,16.18
2023-02-27T00:41:12.749Z,15.66
2023-02-27T00:43:39.583Z,15.87
2023-02-27T00:46:06.702Z,16.37
2023-02-27T00:48:33.528Z,16.30
2023-02-27T00:51:01.680Z,16.31
2023-02-27T00:53:28.632Z,16.31
2023-02-27T00:55:55.546Z,16.25
2023-02-27T00:58:22.340Z,16.07
2023-02-27T01:00:50.321Z,16.45
2023-02-27T01:03:17.188Z,16.22
2023-02-27T01:05:43.909Z,16.33
2023-02-27T01:08:10.696Z,16.44
2023-02-27T01:10:37.519Z,16.31
2023-02-27T01:13:06.704Z,16.37
2023-02-27T01:15:35.301Z,16.14
2023-02-27T01:18:03.640Z,16.32
2023-02-27T01:20:31.447Z,16.39
2023-02-27T01:22:58.200Z,16.58
2023-02-27T01:25:25.117Z,16.32
2023-02-27T01:27:52.802Z,16.40
2023-02-27T01:30:19.695Z,16.45
2023-02-27T01:32:47.575Z,16.60
2023-02-27T01:35:14.501Z,16.52
2023-02-27T01:37:41.318Z,16.44
2023-02-27T01:40:09.467Z,16.66
2023-02-27T01:42:36.407Z,16.64
2023-02-27T01:45:12.123Z,16.39
2023-02-27T01:47:44.436Z,16.52
2023-02-27T01:50:12.346Z,16.41
2023-02-27T01:52:40.819Z,16.20
2023-02-27T01:55:09.524Z,16.43
2023-02-27T01:57:36.512Z,16.43
2023-02-27T02:00:05.981Z,16.05
2023-02-27T02:02:43.719Z,16.37
2023-02-27T02:05:13.507Z,16.63
2023-02-27T02:07:42.051Z,16.54
2023-02-27T02:10:11.985Z,16.39
2023-02-27T02:12:40.634Z,16.29
2023-02-27T02:15:09.636Z,16.23
2023-02-27T02:18:04.272Z,15.92
2023-02-27T02:20:54.721Z,16.28
2023-02-27T02:23:42.621Z,16.28
2023-02-27T02:26:58.001Z,15.54
2023-02-27T02:30:06.696Z,14.71
2023-02-27T02:32:39.529Z,13.97
2023-02-27T02:35:34.132Z,14.59
2023-02-27T02:38:06.716Z,14.44
2023-02-27T02:41:03.367Z,14.80
2023-02-27T02:43:52.494Z,14.34
2023-02-27T02:46:26.010Z,14.45
2023-02-27T02:48:55.664Z,14.73
2023-02-27T02:51:42.073Z,14.80
2023-02-27T02:54:08.764Z,15.09
2023-02-27T02:56:45.674Z,14.93
2023-02-27T02:59:34.634Z,14.86
2023-02-27T03:02:06.324Z,14.40
2023-02-27T03:04:49.947Z,14.83
2023-02-27T03:07:34.352Z,14.79
2023-02-27T03:10:26.229Z,14.74
2023-02-27T03:13:31.054Z,15.01
2023-02-27T03:16:07.887Z,14.77
2023-02-27T03:18:44.431Z,14.72
2023-02-27T03:21:18.749Z,14.08
2023-02-27T03:23:48.013Z,14.10
2023-02-27T03:26:19.818Z,13.88
2023-02-27T03:29:03.850Z,13.84
2023-02-27T03:32:02.200Z,13.40
2023-02-27T03:34:33.135Z,13.54
2023-02-27T03:37:08.551Z,13.74
2023-02-27T03:39:35.391Z,13.62
2023-02-27T03:42:10.259Z,13.53
2023-02-27T03:45:07.469Z,13.64
2023-02-27T03:47:35.813Z,13.69
2023-02-27T03:50:03.309Z,12.57
2023-02-27T03:52:31.148Z,13.31
2023-02-27T03:55:26.188Z,13.65
2023-02-27T03:57:53.716Z,13.80
2023-02-27T04:00:24.790Z,14.03
2023-02-27T04:02:54.398Z,13.86
2023-02-27T04:05:27.139Z,13.69
2023-02-27T04:08:13.152Z,13.54
2023-02-27T04:10:40.853Z,13.31
2023-02-27T04:13:23.009Z,13.35
2023-02-27T04:16:01.782Z,13.16
2023-02-27T04:18:49.385Z,12.29
2023-02-27T04:21:25.836Z,12.65
2023-02-27T04:24:13.505Z,12.60
2023-02-27T04:27:14.345Z,12.47
2023-02-27T04:29:43.654Z,12.19
2023-02-27T04:32:26.203Z,12.51
2023-02-27T04:35:01.908Z,12.14
2023-02-27T04:37:37.446Z,12.27
2023-02-27T04:40:10.333Z,12.59
2023-02-27T04:42:46.098Z,12.38
2023-02-27T04:45:16.788Z,11.75
2023-02-27T04:47:49.554Z,12.21
2023-02-27T04:50:24.951Z,12.73
2023-02-27T04:53:02.052Z,12.15
2023-02-27T04:55:35.698Z,12.12
2023-02-27T04:58:10.245Z,12.48
2023-02-27T05:00:39.862Z,12.42
2023-02-27T05:03:19.669Z,12.41
2023-02-27T05:05:49.312Z,12.41
2023-02-27T05:08:28.854Z,12.76
2023-02-27T05:11:20.864Z,12.44
2023-02-27T05:13:51.956Z,12.19
2023-02-27T05:17:03.999Z,12.34
2023-02-27T05:19:32.654Z,12.05
2023-02-27T05:22:05.436Z,12.52
2023-02-27T05:24:35.169Z,12.85
2023-02-27T05:27:17.559Z,12.84
2023-02-27T05:29:59.510Z,12.83
2023-02-27T05:32:34.088Z,12.58
2023-02-27T05:35:08.935Z,12.01
2023-02-27T05:37:59.157Z,12.44
2023-02-27T05:40:34.278Z,12.67
2023-02-27T05:43:19.266Z,12.93
2023-02-27T05:45:50.341Z,12.49
2023-02-27T05:48:29.782Z,12.90
2023-02-27T05:50:59.308Z,12.81
2023-02-27T05:53:33.543Z,12.87
2023-02-27T05:56:02.888Z,12.67
2023-02-27T05:58:41.613Z,12.59
2023-02-27T06:01:10.619Z,12.53
2023-02-27T06:03:39.308Z,12.87
2023-02-27T06:06:11.269Z,12.90
2023-02-27T06:08:38.204Z,12.30
2023-02-27T06:11:05.260Z,12.16
2023-02-27T06:13:32.074Z,11.73
2023-02-27T06:15:59.995Z,11.82
2023-02-27T06:18:26.779Z,11.90
2023-02-27T06:20:53.937Z,12.24
2023-02-27T06:23:20.737Z,12.13
2023-02-27T06:25:48.899Z,12.16
2023-02-27T06:28:15.964Z,12.60
2023-02-27T06:30:43.914Z,12.41
2023-02-27T06:33:12.458Z,12.41
2023-02-27T06:35:39.547Z,12.61
2023-02-27T06:38:06.337Z,12.61
2023-02-27T06:40:33.317Z,12.66
2023-02-27T06:42:59.994Z,12.66
2023-02-27T06:45:26.712Z,12.55
2023-02-27T06:47:53.619Z,12.66
2023-02-27T06:50:20.440Z,12.66
2023-02-27T06:52:47.180Z,12.41
2023-02-27T06:55:19.898Z,12.62
2023-02-27T06:57:47.759Z,12.80
2023-02-27T07:00:16.350Z,12.64
2023-02-27T07:02:44.109Z,12.90
2023-02-27T07:05:12.134Z,12.78
2023-02-27T07:07:39.569Z,12.76
2023-02-27T07:10:11.735Z,12.87
2023-02-27T07:12:39.692Z,12.94
2023-02-27T07:15:07.646Z,12.94
2023-02-27T07:17:34.689Z,12.99
2023-02-27T07:20:01.495Z,12.76
2023-02-27T07:22:28.381Z,12.78
2023-02-27T07:24:55.096Z,12.60
2023-02-27T07:27:21.958Z,13.01
2023-02-27T07:29:48.999Z,13.04
2023-02-27T07:32:15.890Z,12.90
2023-02-27T07:34:42.744Z,13.32
2023-02-27T07:37:09.485Z,13.49
2023-02-27T07:39:36.358Z,13.75
2023-02-27T07:42:03.233Z,12.98
2023-02-27T07:44:30.316Z,12.68
2023-02-27T07:46:56.980Z,12.25
2023-02-27T07:49:23.683Z,12.77
2023-02-27T07:51:50.608Z,12.44
2023-02-27T07:54:17.415Z,12.44
2023-02-27T07:56:44.952Z,12.69
2023-02-27T07:59:11.645Z,12.77
2023-02-27T08:01:38.539Z,13.11
2023-02-27T08:04:05.567Z,13.07
2023-02-27T08:06:32.403Z,12.85
2023-02-27T08:08:59.290Z,13.29
2023-02-27T08:11:26.331Z,13.70
2023-02-27T08:14:00.449Z,13.78
2023-02-27T08:16:28.585Z,13.95
2023-02-27T08:18:55.949Z,14.18
2023-02-27T08:21:23.115Z,14.56
2023-02-27T08:23:49.845Z,14.53
2023-02-27T08:26:16.533Z,14.93
2023-02-27T08:28:43.316Z,14.18
2023-02-27T08:31:10.180Z,14.39
2023-02-27T08:33:36.919Z,14.86
2023-02-27T08:36:03.861Z,15.00
2023-02-27T08:38:30.701Z,15.15
2023-02-27T08:40:57.460Z,15.35
2023-02-27T08:43:24.558Z,14.93
2023-02-27T08:45:51.762Z,15.32
2023-02-27T08:48:18.990Z,15.99
2023-02-27T08:50:46.858Z,15.99
2023-02-27T08:53:13.995Z,16.40
2023-02-27T08:55:41.265Z,15.73
2023-02-27T08:58:09.283Z,15.32
2023-02-27T09:00:36.229Z,15.47
2023-02-27T09:03:03.130Z,15.53
2023-02-27T09:05:30.146Z,15.53
2023-02-27T09:07:57.024Z,15.62
2023-02-27T09:10:23.879Z,14.44
2023-02-27T09:12:50.594Z,14.47
2023-02-27T09:15:18.598Z,15.01
2023-02-27T09:17:45.558Z,13.96
2023-02-27T09:20:12.894Z,13.64
2023-02-27T09:22:40.512Z,12.93
2023-02-27T09:25:07.939Z,13.66
2023-02-27T09:27:35.400Z,14.21
2023-02-27T09:30:02.317Z,14.62
2023-02-27T09:32:29.351Z,15.51
2023-02-27T09:34:56.262Z,15.26
2023-02-27T09:37:25.001Z,15.73
2023-02-27T09:39:52.331Z,16.12
2023-02-27T09:42:22.746Z,16.26
2023-02-27T09:44:52.386Z,16.19
2023-02-27T09:47:34.840Z,16.32
2023-02-27T09:50:05.377Z,16.76
2023-02-27T09:52:36.259Z,16.36
2023-02-27T09:55:11.736Z,16.66
2023-02-27T09:57:54.969Z,16.62
2023-02-27T10:00:51.599Z,16.52
2023-02-27T10:03:39.306Z,16.62
2023-02-27T10:06:09.084Z,16.72
2023-02-27T10:08:44.208Z,16.68
2023-02-27T10:11:17.269Z,16.92
2023-02-27T10:14:05.520Z,16.64
2023-02-27T10:16:34.316Z,16.55
2023-02-27T10:19:12.879Z,15.74
2023-02-27T10:21:44.433Z,16.64
2023-02-27T10:24:17.359Z,17.31
2023-02-27T10:26:45.338Z,17.32
2023-02-27T10:29:27.376Z,16.73
2023-02-27T10:32:03.870Z,17.08
2023-02-27T10:34:32.904Z,17.10
2023-02-27T10:37:05.249Z,17.53
2023-02-27T10:39:47.587Z,17.52
2023-02-27T10:42:16.447Z,17.26
2023-02-27T10:44:43.262Z,17.63
2023-02-27T10:47:16.549Z,17.81
2023-02-27T10:49:44.181Z,17.99
2023-02-27T10:52:14.171Z,18.32
2023-02-27T10:54:42.609Z,18.01
2023-02-27T10:57:30.569Z,18.43
2023-02-27T11:00:06.769Z,18.06
2023-02-27T11:02:39.707Z,17.89
2023-02-27T11:05:34.296Z,17.94
2023-02-27T11:08:30.910Z,17.40
2023-02-27T11:10:59.676Z,17.19
2023-02-27T11:13:35.850Z,17.55
2023-02-27T11:16:15.868Z,18.13
2023-02-27T11:18:45.073Z,18.03
2023-02-27T11:21:26.315Z,18.39
2023-02-27T11:24:07.676Z,18.18
2023-02-27T11:26:39.310Z,18.16
2023-02-27T11:29:19.199Z,18.03
2023-02-27T11:31:52.031Z,17.76
2023-02-27T11:34:23.932Z,17.16
2023-02-27T11:36:57.739Z,16.54
2023-02-27T11:39:47.129Z,17.17
2023-02-27T11:42:18.850Z,17.74
2023-02-27T11:44:53.680Z,17.54
2023-02-27T11:47:26.259Z,17.93
2023-02-27T11:50:09.059Z,17.05
2023-02-27T11:53:01.659Z,16.90
2023-02-27T11:55:30.572Z,17.05
2023-02-27T11:58:22.049Z,17.34
2023-02-27T12:00:58.732Z,17.73
2023-02-27T12:03:31.762Z,18.23
2023-02-27T12:06:04.867Z,18.11
2023-02-27T12:09:07.543Z,18.51
2023-02-27T12:11:44.242Z,19.23
2023-02-27T12:14:24.959Z,19.04
2023-02-27T12:17:02.149Z,18.76
2023-02-27T12:19:34.992Z,19.28
2023-02-27T12:22:09.335Z,19.86
2023-02-27T12:24:47.568Z,19.07
2023-02-27T12:27:26.217Z,18.72
2023-02-27T12:30:07.672Z,17.54
2023-02-27T12:32:50.775Z,18.09
2023-02-27T12:35:24.080Z,17.41
2023-02-27T12:37:51.338Z,17.51
2023-02-27T12:40:20.007Z,18.08
2023-02-27T12:43:00.861Z,19.08
2023-02-27T12:46:12.859Z,19.07
2023-02-27T12:48:45.797Z,18.95
2023-02-27T12:51:18.151Z,18.88
2023-02-27T12:54:06.418Z,19.18
2023-02-27T12:56:51.620Z,19.04
2023-02-27T12:59:47.595Z,19.20
2023-02-27T13:02:42.612Z,18.77
2023-02-27T13:05:44.370Z,18.46
2023-02-27T13:08:46.906Z,18.52
2023-02-27T13:11:28.978Z,18.68
2023-02-27T13:14:12.844Z,18.11
2023-02-27T13:16:50.762Z,18.14
2023-02-27T13:19:26.595Z,18.16
2023-02-27T13:21:54.719Z,18.16
2023-02-27T13:24:27.762Z,17.89
2023-02-27T13:27:12.810Z,18.51
2023-02-27T13:29:47.596Z,18.60
2023-02-27T13:32:36.511Z,18.97
2023-02-27T13:35:49.155Z,19.72
2023-02-27T13:38:33.968Z,20.03
2023-02-27T13:41:28.786Z,20.55
2023-02-27T13:44:00.314Z,20.59
2023-02-27T13:46:29.612Z,20.08
2023-02-27T13:49:05.221Z,19.39
2023-02-27T13:51:35.052Z,18.85
2023-02-27T13:54:15.286Z,18.16
2023-02-27T13:56:48.029Z,17.63
2023-02-27T13:59:44.345Z,17.66
2023-02-27T14:02:11.335Z,16.70
2023-02-27T14:05:00.702Z,16.63
2023-02-27T14:07:33.691Z,16.56
2023-02-27T14:10:05.550Z,15.59
2023-02-27T14:12:45.930Z,15.55
2023-02-27T14:15:22.062Z,15.68
2023-02-27T14:18:12.345Z,15.57
2023-02-27T14:20:42.639Z,15.49
2023-02-27T14:23:18.010Z,15.73
2023-02-27T14:25:52.595Z,15.90
2023-02-27T14:28:31.500Z,15.17
2023-02-27T14:31:03.133Z,15.12
2023-02-27T14:33:45.645Z,15.05
2023-02-27T14:36:20.071Z,14.93
2023-02-27T14:38:48.194Z,14.70
2023-02-27T14:41:49.540Z,14.53
2023-02-27T14:44:25.277Z,14.51
2023-02-27T14:46:57.427Z,13.76
2023-02-27T14:49:35.557Z,13.89
2023-02-27T14:52:25.929Z,14.24
2023-02-27T14:54:53.762Z,14.01
2023-02-27T14:57:27.089Z,13.81
2023-02-27T14:59:54.673Z,13.75
2023-02-27T15:02:26.072Z,14.12
2023-02-27T15:05:13.666Z,13.88
2023-02-27T15:07:40.768Z,13.71
2023-02-27T15:10:09.754Z,13.82
2023-02-27T15:12:39.375Z,13.77
2023-02-27T15:15:09.052Z,13.48
2023-02-27T15:17:43.009Z,13.76
2023-02-27T15:20:31.271Z,13.80
2023-02-27T15:22:59.895Z,14.19
2023-02-27T15:25:32.832Z,13.75
2023-02-27T15:28:06.091Z,14.04
2023-02-27T15:30:33.376Z,14.08
2023-02-27T15:33:02.874Z,14.22
2023-02-27T15:35:37.480Z,14.34
2023-02-27T15:38:04.398Z,14.47
2023-02-27T15:40:33.085Z,14.55
2023-02-27T15:43:01.076Z,14.43
2023-02-27T15:45:31.889Z,14.53
2023-02-27T15:47:59.340Z,14.30
2023-02-27T15:50:31.411Z,14.38
2023-02-27T15:53:09.495Z,14.46
2023-02-27T15:55:42.885Z,14.07
2023-02-27T15:58:30.494Z,14.06
2023-02-27T16:01:02.246Z,13.71
2023-02-27T16:03:53.387Z,14.07
2023-02-27T16:06:27.631Z,13.51
2023-02-27T16:08:57.766Z,13.44
2023-02-27T16:11:30.201Z,13.48
2023-02-27T16:13:57.908Z,13.99
2023-02-27T16:16:37.616Z,13.82
2023-02-27T16:19:26.241Z,13.31
2023-02-27T16:22:16.069Z,13.39
2023-02-27T16:24:43.720Z,13.02
2023-02-27T16:27:23.804Z,13.60
2023-02-27T16:29:51.514Z,13.70
2023-02-27T16:32:28.385Z,13.76
2023-02-27T16:35:08.867Z,13.58
2023-02-27T16:37:38.656Z,13.38
2023-02-27T16:40:18.949Z,13.30
2023-02-27T16:42:46.217Z,13.10
2023-02-27T16:45:17.395Z,13.48
2023-02-27T16:47:45.382Z,12.90
2023-02-27T16:50:33.642Z,12.99
2023-02-27T16:53:01.035Z,13.34
2023-02-27T16:55:28.129Z,12.79
2023-02-27T16:57:55.069Z,12.27
2023-02-27T17:00:23.268Z,12.60
2023-02-27T17:02:51.173Z,12.34
2023-02-27T17:05:18.804Z,12.62
2023-02-27T17:07:45.924Z,13.03
2023-02-27T17:10:17.983Z,13.03
2023-02-27T17:12:46.990Z,12.77
2023-02-27T17:15:15.125Z,13.02
2023-02-27T17:17:42.147Z,13.05
2023-02-27T17:20:11.289Z,13.28
2023-02-27T17:22:40.654Z,13.35
2023-02-27T17:25:09.139Z,13.87
2023-02-27T17:27:36.122Z,13.85
2023-02-27T17:30:03.848Z,13.91
2023-02-27T17:32:31.840Z,13.93
2023-02-27T17:34:59.362Z,14.09
2023-02-27T17:37:27.260Z,14.01
2023-02-27T17:39:55.442Z,14.08
2023-02-27T17:42:25.718Z,13.87
2023-02-27T17:44:52.875Z,13.80
2023-02-27T17:47:19.686Z,13.71
2023-02-27T17:49:47.219Z,13.86
2023-02-27T17:52:14.366Z,13.77
2023-02-27T17:54:41.283Z,13.76
2023-02-27T17:57:10.452Z,13.71
2023-02-27T17:59:37.461Z,13.83
2023-02-27T18:02:04.548Z,13.78
2023-02-27T18:04:31.269Z,13.65
2023-02-27T18:06:58.223Z,13.83
2023-02-27T18:09:24.942Z,13.68
2023-02-27T18:11:51.893Z,13.60
2023-02-27T18:14:18.628Z,13.82
2023-02-27T18:16:45.594Z,13.84
2023-02-27T18:19:12.444Z,13.70
2023-02-27T18:21:39.524Z,13.72
2023-02-27T18:24:06.452Z,13.68
2023-02-27T18:26:33.477Z,13.68
2023-02-27T18:29:09.003Z,13.71
2023-02-27T18:31:37.520Z,13.63
2023-02-27T18:34:05.107Z,13.68
2023-02-27T18:36:32.682Z,13.55
2023-02-27T18:39:00.721Z,13.57
2023-02-27T18:41:29.138Z,13.57
2023-02-27T18:43:56.178Z,13.66
2023-02-27T18:46:23.005Z,13.58
2023-02-27T18:48:50.269Z,13.46
2023-02-27T18:51:17.921Z,13.38
2023-02-27T18:53:48.116Z,13.48
2023-02-27T18:56:20.851Z,13.45
2023-02-27T18:58:48.627Z,13.45
2023-02-27T19:01:30.783Z,13.35
2023-02-27T19:04:03.694Z,13.28
2023-02-27T19:06:36.277Z,13.37
2023-02-27T19:09:07.847Z,13.17
2023-02-27T19:11:35.795Z,12.49
2023-02-27T19:14:04.578Z,13.11
2023-02-27T19:16:32.359Z,12.43
2023-02-27T19:19:01.247Z,12.40
2023-02-27T19:21:28.662Z,12.58
2023-02-27T19:23:57.262Z,12.85
2023-02-27T19:26:26.681Z,12.85
2023-02-27T19:28:55.268Z,13.02
2023-02-27T19:31:24.092Z,12.92
2023-02-27T19:33:51.540Z,12.99
2023-02-27T19:36:21.009Z,12.55
2023-02-27T19:38:48.385Z,12.41
2023-02-27T19:41:16.908Z,12.71
2023-02-27T19:43:44.506Z,12.97
2023-02-27T19:46:16.646Z,13.05
2023-02-27T19:48:44.012Z,12.72
2023-02-27T19:51:13.926Z,12.92
2023-02-27T19:53:42.462Z,12.69
2023-02-27T19:56:15.164Z,12.60
2023-02-27T19:58:42.361Z,12.17
2023-02-27T20:01:09.982Z,12.02
2023-02-27T20:03:38.078Z,12.18
2023-02-27T20:06:06.965Z,12.04
2023-02-27T20:08:34.245Z,12.14
2023-02-27T20:11:04.417Z,12.39
2023-02-27T20:13:31.820Z,12.14
2023-02-27T20:16:07.464Z,12.16
2023-02-27T20:18:35.690Z,12.05
2023-02-27T20:21:06.954Z,11.97
2023-02-27T20:23:35.943Z,11.79
2023-02-27T20:26:20.123Z,11.60
2023-02-27T20:28:49.344Z,11.62
2023-02-27T20:31:22.111Z,11.83
2023-02-27T20:33:49.425Z,11.68
2023-02-27T20:36:16.816Z,10.92
2023-02-27T20:38:44.407Z,11.26
2023-02-27T20:41:14.111Z,10.96
2023-02-27T20:43:43.262Z,11.43
2023-02-27T20:46:15.981Z,11.27
2023-02-27T20:48:43.424Z,10.76
2023-02-27T20:51:22.605Z,11.10
2023-02-27T20:53:51.612Z,10.94
2023-02-27T20:56:21.420Z,10.47
2023-02-27T20:58:48.679Z,10.57
2023-02-27T21:01:16.566Z,10.00
2023-02-27T21:03:45.139Z,10.26
2023-02-27T21:06:14.962Z,10.47
2023-02-27T21:08:45.868Z,10.66
2023-02-27T21:11:15.647Z,10.55
2023-02-27T21:13:42.903Z,10.61
2023-02-27T21:16:12.684Z,10.41
2023-02-27T21:18:39.510Z,10.42
2023-02-27T21:21:08.679Z,10.75
2023-02-27T21:23:41.364Z,9.84
2023-02-27T21:26:37.828Z,10.00
2023-02-27T21:29:19.271Z,9.72
2023-02-27T21:31:51.210Z,10.05
2023-02-27T21:34:24.588Z,10.30
2023-02-27T21:36:52.458Z,9.68
2023-02-27T21:39:24.208Z,10.38
2023-02-27T21:41:51.146Z,11.14
2023-02-27T21:44:21.695Z,11.49
2023-02-27T21:46:48.447Z,11.55
2023-02-27T21:49:27.091Z,11.84
2023-02-27T21:51:54.704Z,11.98
2023-02-27T21:54:22.011Z,12.08
2023-02-27T21:56:49.570Z,12.19
2023-02-27T21:59:17.668Z,11.96
2023-02-27T22:01:48.773Z,11.30
2023-02-27T22:04:17.444Z,11.77
2023-02-27T22:06:44.756Z,12.45
2023-02-27T22:09:11.706Z,12.52
2023-02-27T22:11:41.142Z,12.70
2023-02-27T22:14:09.793Z,12.57
2023-02-27T22:16:36.625Z,12.52
2023-02-27T22:19:18.795Z,12.24
2023-02-27T22:21:46.300Z,12.10
2023-02-27T22:24:13.808Z,11.95
2023-02-27T22:26:42.553Z,12.36
2023-02-27T22:29:09.334Z,12.42
2023-02-27T22:31:38.537Z,12.67
2023-02-27T22:34:12.268Z,12.61
2023-02-27T22:36:41.728Z,12.52
2023-02-27T22:39:08.570Z,12.44
2023-02-27T22:41:38.371Z,12.43
2023-02-27T22:44:06.198Z,12.68
2023-02-27T22:46:36.174Z,12.68
2023-02-27T22:49:06.729Z,12.50
2023-02-27T22:51:33.925Z,12.63
2023-02-27T22:54:03.188Z,12.53
2023-02-27T22:56:30.736Z,12.56
2023-02-27T22:58:57.671Z,12.47
2023-02-27T23:01:31.539Z,12.24
2023-02-27T23:04:01.573Z,12.26
2023-02-27T23:06:31.455Z,11.81
2023-02-27T23:08:59.450Z,11.74
2023-02-27T23:11:26.879Z,11.84
2023-02-27T23:13:54.014Z,11.91
2023-02-27T23:16:21.002Z,12.08
2023-02-27T23:18:50.542Z,12.12
2023-02-27T23:21:19.966Z,12.04
2023-02-27T23:23:47.737Z,12.03
2023-02-27T23:26:14.568Z,12.08
2023-02-27T23:28:41.888Z,12.14
2023-02-27T23:31:09.271Z,12.17
2023-02-27T23:33:36.532Z,12.19
2023-02-27T23:36:04.348Z,11.90
2023-02-27T23:38:31.256Z,11.79
2023-02-27T23:40:58.546Z,12.07
2023-02-27T23:43:25.363Z,12.01
2023-02-27T23:45:52.078Z,11.97
2023-02-27T23:48:21.914Z,11.86
2023-02-27T23:50:49.001Z,11.60
2023-02-27T23:53:15.973Z,12.15
2023-02-27T23:55:43.856Z,12.18
2023-02-27T23:58:11.273Z,12.04
